Time;durP1;ratioP1;P1;durP2;ratioP2;P2;SDS_P1;SDS_P2;PMS_P1;PMS_P2;Temp;Humidity;BMP_temperature;BMP_pressure;BME280_temperature;BME280_humidity;BME280_pressure;Samples;Min_cycle;Max_cycle;Signal;HPM_P1;HPM_P2
2022/05/03 00:00:53;;;;;;;8.10;5.68;;;11.90;99.90;;;;;;5052320;28;20059;-71
2022/05/03 00:04:17;;;;;;;8.18;6.40;;;11.80;99.90;;;;;;5053326;28;20501;-72
2022/05/03 00:07:28;;;;;;;10.50;6.13;;;11.70;99.90;;;;;;5052771;28;20052;-72
2022/05/03 00:10:55;;;;;;;11.85;6.85;;;11.60;99.90;;;;;;5053066;28;20052;-71
2022/05/03 00:14:05;;;;;;;8.98;6.25;;;11.50;99.90;;;;;;5032898;28;20044;-71
2022/05/03 00:17:10;;;;;;;10.57;6.32;;;11.40;99.90;;;;;;5052063;28;20040;-72
2022/05/03 00:20:15;;;;;;;8.63;5.78;;;11.40;99.90;;;;;;5052129;28;20052;-71
2022/05/03 00:23:22;;;;;;;8.13;5.50;;;11.30;99.90;;;;;;5052526;28;20075;-72
2022/05/03 00:26:28;;;;;;;6.80;5.38;;;11.20;99.90;;;;;;5052160;28;20834;-72
2022/05/03 00:29:33;;;;;;;5.72;4.82;;;11.20;99.90;;;;;;5051557;28;20396;-72
2022/05/03 00:32:39;;;;;;;8.30;5.38;;;11.20;99.90;;;;;;5052070;28;20048;-72
2022/05/03 00:35:43;;;;;;;6.63;5.13;;;11.20;99.90;;;;;;5051360;28;20048;-72
2022/05/03 00:38:48;;;;;;;7.35;5.40;;;11.20;99.90;;;;;;5052397;28;20040;-71
2022/05/03 00:41:56;;;;;;;7.90;5.22;;;11.10;99.90;;;;;;5039868;28;20055;-72
2022/05/03 00:45:02;;;;;;;8.93;5.35;;;11.10;99.90;;;;;;5051887;28;20403;-72
2022/05/03 00:48:12;;;;;;;6.28;5.15;;;11.10;99.90;;;;;;5051963;28;20070;-72
2022/05/03 00:51:37;;;;;;;6.60;5.28;;;11.10;99.90;;;;;;5051941;28;20396;-72
2022/05/03 00:55:13;;;;;;;8.50;5.28;;;11.10;99.90;;;;;;5031580;28;20044;-71
2022/05/03 00:58:26;;;;;;;10.70;5.63;;;11.00;99.90;;;;;;5034953;28;20040;-72
2022/05/03 01:02:04;;;;;;;8.80;5.90;;;11.00;99.90;;;;;;5052164;28;20044;-72
2022/05/03 01:05:10;;;;;;;9.57;6.38;;;11.00;99.90;;;;;;5051688;28;20044;-71
2022/05/03 01:08:30;;;;;;;12.75;6.68;;;11.00;99.90;;;;;;5051681;28;20387;-71
2022/05/03 01:11:54;;;;;;;10.00;6.22;;;11.00;99.90;;;;;;5051411;28;20040;-71
2022/05/03 01:15:09;;;;;;;6.75;5.32;;;11.00;99.90;;;;;;5051611;28;20048;-72
2022/05/03 01:18:14;;;;;;;6.78;5.35;;;11.00;99.90;;;;;;5051213;28;20032;-72
2022/05/03 01:22:06;;;;;;;6.80;5.18;;;11.00;99.90;;;;;;5051089;28;20051;-71
2022/05/03 01:25:45;;;;;;;8.65;5.45;;;10.90;99.90;;;;;;5039234;28;20056;-71
2022/05/03 01:29:08;;;;;;;10.93;6.43;;;10.80;99.90;;;;;;5051471;28;20056;-72
2022/05/03 01:32:12;;;;;;;;;;;10.80;99.90;;;;;;5052116;28;20044;-72
2022/05/03 01:35:21;;;;;;;11.77;6.45;;;10.80;99.90;;;;;;5051443;28;19967;-71
2022/05/03 01:38:33;;;;;;;8.18;5.65;;;10.80;99.90;;;;;;5051199;28;20396;-72
2022/05/03 01:41:42;;;;;;;;;;;10.70;99.90;;;;;;5051496;28;20613;-71
2022/05/03 01:45:02;;;;;;;7.68;5.88;;;10.70;99.90;;;;;;5051216;28;19931;-71
2022/05/03 01:48:18;;;;;;;9.57;6.25;;;10.60;99.90;;;;;;5050573;28;20047;-71
2022/05/03 01:51:58;;;;;;;8.85;5.80;;;10.50;99.90;;;;;;5050790;28;20503;-71
2022/05/03 01:55:40;;;;;;;8.40;6.28;;;10.40;99.90;;;;;;5038462;28;20518;-71
2022/05/03 01:58:55;;;;;;;9.50;6.10;;;10.30;99.90;;;;;;5051406;28;20040;-71
2022/05/03 02:02:26;;;;;;;13.73;6.90;;;10.20;99.90;;;;;;5051273;28;20044;-71
2022/05/03 02:05:52;;;;;;;9.10;6.22;;;10.10;99.90;;;;;;5050288;28;20052;-71
2022/05/03 02:09:06;;;;;;;13.15;7.38;;;10.00;99.90;;;;;;5050888;28;20055;-71
2022/05/03 02:12:19;;;;;;;10.18;7.25;;;9.80;99.90;;;;;;5050675;28;20072;-71
2022/05/03 02:15:38;;;;;;;10.80;7.53;;;9.80;99.90;;;;;;5050432;28;20396;-71
2022/05/03 02:19:06;;;;;;;13.15;7.75;;;9.70;99.90;;;;;;5050430;28;20036;-71
2022/05/03 02:22:31;;;;;;;13.45;8.95;;;9.50;99.90;;;;;;5050441;28;20052;-71
2022/05/03 02:25:35;;;;;;;12.70;8.40;;;9.50;99.90;;;;;;5050390;28;20052;-71
2022/05/03 02:28:47;;;;;;;13.05;8.98;;;9.40;99.90;;;;;;5050518;28;20052;-71
2022/05/03 02:32:04;;;;;;;16.95;10.63;;;9.40;99.90;;;;;;5050525;28;20060;-71
2022/05/03 02:35:20;;;;;;;19.33;11.25;;;9.30;99.90;;;;;;5050188;28;20048;-71
2022/05/03 02:38:37;;;;;;;18.13;10.73;;;9.20;99.90;;;;;;5050101;28;20040;-71
2022/05/03 02:41:46;;;;;;;16.02;10.65;;;9.20;99.90;;;;;;5050360;28;20043;-71
2022/05/03 02:44:53;;;;;;;14.25;10.07;;;9.10;99.90;;;;;;5050164;28;20056;-71
2022/05/03 02:48:21;;;;;;;15.15;9.98;;;9.10;99.90;;;;;;5050112;28;20044;-71
2022/05/03 02:51:45;;;;;;;16.35;10.90;;;9.20;99.90;;;;;;5049758;28;20052;-71
2022/05/03 02:54:54;;;;;;;16.20;10.52;;;9.20;99.90;;;;;;5050143;28;20682;-71
2022/05/03 02:58:30;;;;;;;16.00;10.90;;;9.20;99.90;;;;;;5050246;28;20040;-71
2022/05/03 03:01:49;;;;;;;19.00;11.90;;;9.20;99.90;;;;;;5053995;28;20051;-71
2022/05/03 03:05:02;;;;;;;18.67;10.65;;;9.10;99.90;;;;;;5053991;28;20498;-71
2022/05/03 03:08:06;;;;;;;16.88;11.10;;;9.10;99.90;;;;;;5053926;28;20048;-71
2022/05/03 03:11:30;;;;;;;16.98;11.88;;;9.00;99.90;;;;;;5053693;28;20047;-71
2022/05/03 03:14:46;;;;;;;16.38;9.70;;;9.00;99.90;;;;;;5053942;28;20048;-71
2022/05/03 03:17:51;;;;;;;16.90;8.85;;;9.10;99.90;;;;;;5053706;28;20490;-70
2022/05/03 03:20:57;;;;;;;14.30;8.45;;;9.20;99.90;;;;;;5054075;28;20227;-70
2022/05/03 03:24:01;;;;;;;13.90;9.13;;;9.40;99.90;;;;;;5053797;28;20618;-71
2022/05/03 03:27:08;;;;;;;15.20;9.63;;;9.30;99.90;;;;;;5053585;28;20067;-71
2022/05/03 03:30:13;;;;;;;15.52;9.80;;;9.30;99.90;;;;;;5053806;28;20048;-71
2022/05/03 03:33:22;;;;;;;18.48;9.77;;;9.20;99.90;;;;;;5053382;28;20040;-71
2022/05/03 03:36:27;;;;;;;16.35;10.40;;;9.10;99.90;;;;;;5053298;28;20048;-71
2022/05/03 03:39:32;;;;;;;18.58;12.10;;;9.10;99.90;;;;;;5053451;28;20060;-71
2022/05/03 03:42:36;;;;;;;16.45;11.05;;;9.00;99.90;;;;;;5053337;28;20044;-71
2022/05/03 03:45:41;;;;;;;15.20;10.60;;;9.00;99.90;;;;;;5053264;28;20408;-71
2022/05/03 03:48:45;;;;;;;16.77;10.77;;;9.00;99.90;;;;;;5053485;28;20402;-71
2022/05/03 03:51:50;;;;;;;16.85;10.40;;;8.90;99.90;;;;;;5053199;28;20051;-71
2022/05/03 03:54:56;;;;;;;19.30;11.63;;;8.80;99.90;;;;;;5053431;28;20052;-71
2022/05/03 03:58:00;;;;;;;15.57;10.80;;;8.80;99.90;;;;;;5052678;28;20044;-71
2022/05/03 04:01:04;;;;;;;12.80;9.70;;;8.70;99.90;;;;;;5053246;28;20039;-71
2022/05/03 04:04:11;;;;;;;14.32;10.75;;;8.70;99.90;;;;;;5052951;28;20048;-71
2022/05/03 04:07:15;;;;;;;16.73;10.32;;;8.70;99.90;;;;;;5051264;28;20388;-71
2022/05/03 04:10:19;;;;;;;13.55;9.23;;;8.70;99.90;;;;;;5053024;28;20060;-71
2022/05/03 04:13:23;;;;;;;14.38;10.10;;;8.70;99.90;;;;;;5052383;28;20360;-71
2022/05/03 04:16:28;;;;;;;14.70;10.35;;;8.60;99.90;;;;;;5052440;28;20044;-71
2022/05/03 04:19:35;;;;;;;20.50;13.57;;;8.60;99.90;;;;;;5052576;28;20048;-70
2022/05/03 04:22:39;;;;;;;20.98;12.40;;;8.70;99.90;;;;;;5052601;28;20048;-71
2022/05/03 04:25:44;;;;;;;20.80;13.63;;;8.80;99.90;;;;;;5052536;28;20043;-71
2022/05/03 04:28:48;;;;;;;15.90;10.55;;;8.90;99.90;;;;;;5052676;28;20052;-71
2022/05/03 04:31:52;;;;;;;17.92;11.98;;;8.80;99.90;;;;;;5052251;28;20044;-71
2022/05/03 04:34:56;;;;;;;20.88;12.93;;;8.80;99.90;;;;;;5051999;28;20036;-71
2022/05/03 04:38:01;;;;;;;20.08;11.90;;;8.80;99.90;;;;;;5051576;28;20032;-71
2022/05/03 04:41:05;;;;;;;18.55;12.57;;;8.80;99.90;;;;;;5052354;28;20043;-71
2022/05/03 04:44:09;;;;;;;19.13;13.23;;;8.70;99.90;;;;;;5052258;28;20064;-71
2022/05/03 04:47:13;;;;;;;18.40;11.75;;;8.70;99.90;;;;;;5051583;28;20040;-71
2022/05/03 04:50:17;;;;;;;16.50;12.15;;;8.80;99.90;;;;;;5052176;28;20052;-71
2022/05/03 04:53:22;;;;;;;19.58;13.38;;;8.80;99.90;;;;;;5051616;28;20044;-71
2022/05/03 04:56:26;;;;;;;18.58;13.68;;;8.90;99.90;;;;;;5051561;28;20044;-71
2022/05/03 04:59:30;;;;;;;19.75;11.73;;;8.80;99.90;;;;;;5051962;28;20048;-71
2022/05/03 05:02:34;;;;;;;17.45;11.63;;;9.10;99.90;;;;;;5052268;28;20054;-71
2022/05/03 05:05:38;;;;;;;17.25;11.07;;;11.30;99.90;;;;;;5052069;28;20047;-71
2022/05/03 05:08:43;;;;;;;19.17;9.40;;;13.90;99.90;;;;;;5052138;28;20047;-71
2022/05/03 05:11:49;;;;;;;12.38;8.73;;;15.50;99.90;;;;;;5051718;28;20123;-71
2022/05/03 05:14:53;;;;;;;14.38;8.85;;;16.60;99.90;;;;;;5051341;28;20052;-71
2022/05/03 05:17:58;;;;;;;16.42;9.23;;;17.00;99.90;;;;;;5050723;28;20044;-71
2022/05/03 05:21:03;;;;;;;16.80;10.40;;;18.30;99.90;;;;;;5050553;28;20056;-71
2022/05/03 05:24:10;;;;;;;17.55;8.57;;;19.30;99.90;;;;;;5051171;28;20512;-71
2022/05/03 05:27:15;;;;;;;16.13;9.50;;;20.20;99.90;;;;;;5050324;28;20427;-72
2022/05/03 05:30:19;;;;;;;18.48;8.43;;;20.60;99.90;;;;;;5050892;28;20040;-72
2022/05/03 05:33:23;;;;;;;13.00;8.15;;;21.40;99.90;;;;;;5050925;28;20051;-72
2022/05/03 05:36:27;;;;;;;12.13;8.70;;;21.60;99.90;;;;;;5050672;28;20051;-72
2022/05/03 05:39:31;;;;;;;12.05;9.52;;;21.60;99.90;;;;;;5050817;28;20067;-72
2022/05/03 05:42:36;;;;;;;13.75;8.65;;;18.50;99.90;;;;;;5051084;28;20071;-72
2022/05/03 05:45:40;;;;;;;15.10;8.50;;;19.70;99.90;;;;;;5050949;28;20051;-72
2022/05/03 05:48:46;;;;;;;12.10;7.57;;;21.20;99.90;;;;;;5050652;28;20039;-72
2022/05/03 05:51:51;;;;;;;10.05;6.75;;;21.60;99.90;;;;;;5050819;28;20044;-72
2022/05/03 05:54:55;;;;;;;11.13;7.28;;;21.80;99.90;;;;;;5050488;28;20051;-72
2022/05/03 05:58:00;;;;;;;9.80;6.55;;;20.60;99.80;;;;;;5050234;28;20048;-72
2022/05/03 06:01:04;;;;;;;10.00;6.97;;;20.40;99.90;;;;;;5050487;28;20043;-72
2022/05/03 06:04:09;;;;;;;12.05;7.05;;;21.60;99.90;;;;;;5049411;28;20028;-72
2022/05/03 06:07:13;;;;;;;10.40;6.72;;;22.60;98.80;;;;;;5050137;28;20380;-73
2022/05/03 06:10:18;;;;;;;8.55;6.90;;;20.20;99.50;;;;;;5032283;28;20613;-72
2022/05/03 06:13:22;;;;;;;10.98;6.78;;;18.80;99.90;;;;;;5049156;28;20044;-72
2022/05/03 06:16:26;;;;;;;11.73;6.85;;;18.80;99.90;;;;;;5045862;28;20040;-72
2022/05/03 06:19:30;;;;;;;10.02;6.20;;;19.30;99.90;;;;;;5039771;28;20051;-72
2022/05/03 06:22:34;;;;;;;8.98;6.50;;;20.90;99.90;;;;;;5045208;28;20048;-72
2022/05/03 06:25:38;;;;;;;14.15;6.57;;;21.70;99.00;;;;;;5045443;28;20060;-72
2022/05/03 06:28:43;;;;;;;9.55;6.45;;;22.50;98.50;;;;;;5040607;28;20052;-72
2022/05/03 06:31:47;;;;;;;11.43;6.00;;;22.90;97.40;;;;;;5032775;28;20506;-71
2022/05/03 06:34:51;;;;;;;7.38;5.85;;;23.00;97.10;;;;;;5048788;28;20048;-70
2022/05/03 06:37:55;;;;;;;8.30;5.68;;;23.40;96.80;;;;;;5044820;28;20064;-70
2022/05/03 06:41:00;;;;;;;7.88;6.43;;;23.80;96.60;;;;;;5041975;28;20040;-71
2022/05/03 06:44:04;;;;;;;7.60;5.90;;;22.40;96.10;;;;;;5048592;28;20048;-71
2022/05/03 06:47:08;;;;;;;7.43;5.38;;;23.10;97.30;;;;;;5050152;28;20052;-70
2022/05/03 06:50:12;;;;;;;7.30;5.05;;;24.30;95.80;;;;;;5042196;28;20494;-70
2022/05/03 06:53:16;;;;;;;5.82;4.35;;;25.10;94.10;;;;;;5043042;28;20051;-70
2022/05/03 06:56:21;;;;;;;5.20;4.15;;;25.10;93.90;;;;;;5045149;28;20399;-70
2022/05/03 06:59:25;;;;;;;7.15;4.90;;;25.70;93.00;;;;;;5043891;28;20503;-71
2022/05/03 07:02:30;;;;;;;7.93;5.00;;;25.60;91.90;;;;;;5047101;28;20036;-71
2022/05/03 07:05:34;;;;;;;8.10;5.25;;;24.50;92.70;;;;;;5043209;28;20116;-71
2022/05/03 07:08:39;;;;;;;7.68;5.50;;;25.20;92.30;;;;;;5042441;28;20052;-71
2022/05/03 07:11:43;;;;;;;16.85;6.07;;;24.80;92.80;;;;;;5046527;28;20495;-72
2022/05/03 07:14:47;;;;;;;7.10;4.88;;;23.90;93.10;;;;;;5046568;28;20052;-71
2022/05/03 07:24:37;;;;;;;4.57;3.75;;;26.40;91.80;;;;;;5044019;28;20040;-72
2022/05/03 07:27:41;;;;;;;5.60;3.88;;;27.50;91.30;;;;;;5048960;28;20055;-71
2022/05/03 07:30:45;;;;;;;6.70;3.78;;;26.50;90.40;;;;;;5036702;28;20048;-71
2022/05/03 07:33:49;;;;;;;7.22;4.20;;;25.50;91.20;;;;;;5044638;28;20116;-71
2022/05/03 07:36:54;;;;;;;4.15;3.60;;;24.00;91.80;;;;;;5044621;28;20048;-71
2022/05/03 07:39:58;;;;;;;6.28;4.55;;;25.00;91.50;;;;;;5040705;28;20044;-71
2022/05/03 07:43:03;;;;;;;5.90;4.80;;;23.30;91.60;;;;;;5044003;28;20044;-71
2022/05/03 07:46:07;;;;;;;5.20;4.18;;;23.80;92.50;;;;;;5049767;28;20063;-72
2022/05/03 07:49:11;;;;;;;5.78;4.18;;;24.60;92.10;;;;;;5052449;28;20044;-72
2022/05/03 07:52:15;;;;;;;9.68;4.35;;;26.50;91.50;;;;;;5045233;28;20047;-72
2022/05/03 07:55:19;;;;;;;4.90;3.97;;;28.40;90.20;;;;;;5047424;28;20052;-71
2022/05/03 07:58:23;;;;;;;7.63;3.97;;;29.90;88.40;;;;;;5051413;28;20059;-72
2022/05/03 08:01:27;;;;;;;7.47;3.75;;;30.80;85.30;;;;;;5048691;28;20043;-73
2022/05/03 08:04:31;;;;;;;7.30;3.60;;;27.70;87.70;;;;;;5051996;28;20049;-72
2022/05/03 08:07:36;;;;;;;4.60;3.80;;;27.00;88.40;;;;;;5044301;28;20059;-71
2022/05/03 08:10:40;;;;;;;4.72;3.42;;;28.70;88.50;;;;;;5051642;28;20048;-70
2022/05/03 08:13:45;;;;;;;5.85;3.45;;;29.90;86.30;;;;;;5048195;28;20044;-70
2022/05/03 08:16:50;;;;;;;5.15;3.28;;;29.60;83.60;;;;;;5049927;28;20052;-71
2022/05/03 08:19:55;;;;;;;10.65;4.00;;;30.70;83.40;;;;;;5050559;28;20060;-71
2022/05/03 08:22:59;;;;;;;5.00;3.33;;;30.80;80.70;;;;;;5048338;28;20047;-72
2022/05/03 08:26:05;;;;;;;4.05;3.10;;;32.70;77.70;;;;;;5050890;28;20064;-71
2022/05/03 08:29:08;;;;;;;4.75;3.08;;;32.60;75.20;;;;;;5051607;28;20767;-73
2022/05/03 08:32:12;;;;;;;3.50;3.03;;;32.60;73.70;;;;;;5044613;28;20044;-71
2022/05/03 08:35:16;;;;;;;8.98;3.17;;;33.10;74.20;;;;;;5049560;28;20044;-72
2022/05/03 08:42:07;;;;;;;3.80;2.60;;;32.90;69.60;;;;;;5042046;28;20028;-71
2022/05/03 08:45:11;;;;;;;7.32;3.28;;;32.80;70.10;;;;;;5039873;28;20039;-71
2022/05/03 08:48:27;;;;;;;3.80;3.00;;;29.80;70.60;;;;;;5046019;28;20123;-72
2022/05/03 08:51:32;;;;;;;6.78;3.58;;;29.80;72.60;;;;;;5044915;28;20675;-72
2022/05/03 08:54:37;;;;;;;4.47;3.13;;;32.40;71.00;;;;;;5050873;28;20052;-71
2022/05/03 08:57:45;;;;;;;4.63;3.30;;;33.80;69.10;;;;;;5040397;28;20043;-72
2022/05/03 09:00:49;;;;;;;4.93;2.60;;;30.60;68.70;;;;;;5047471;28;20637;-71
2022/05/03 09:03:53;;;;;;;4.68;2.58;;;32.80;68.40;;;;;;5049048;28;20044;-71
2022/05/03 09:06:57;;;;;;;4.13;2.40;;;31.50;70.00;;;;;;5043696;28;20040;-71
2022/05/03 09:10:15;;;;;;;4.95;2.92;;;33.90;65.90;;;;;;5046952;28;20048;-72
2022/05/03 09:13:22;;;;;;;10.95;4.00;;;32.50;68.00;;;;;;5048473;28;20040;-71
2022/05/03 09:16:26;;;;;;;5.82;3.85;;;33.50;66.00;;;;;;5046939;28;20399;-72
2022/05/03 09:19:31;;;;;;;5.03;3.50;;;35.50;65.10;;;;;;5039530;28;20053;-72
2022/05/03 09:26:09;;;;;;;3.83;3.30;;;37.50;60.60;;;;;;5048119;28;20044;-72
2022/05/03 09:29:14;;;;;;;4.05;2.60;;;38.30;59.70;;;;;;5050956;28;20036;-72
2022/05/03 09:32:37;;;;;;;6.05;3.60;;;37.40;60.00;;;;;;5042207;28;20049;-71
2022/05/03 09:35:41;;;;;;;4.15;3.58;;;33.90;60.90;;;;;;5047079;28;20036;-72
2022/05/03 09:38:56;;;;;;;4.75;3.75;;;33.50;63.60;;;;;;5038669;28;20047;-71
2022/05/03 09:42:06;;;;;;;6.82;4.35;;;33.70;61.20;;;;;;5030448;28;20040;-71
2022/05/03 09:45:10;;;;;;;10.88;5.53;;;30.20;62.00;;;;;;5042977;28;20063;-71
2022/05/03 09:48:13;;;;;;;9.10;5.25;;;33.60;63.50;;;;;;5044260;28;20039;-72
2022/05/03 09:51:17;;;;;;;8.45;4.68;;;34.50;61.80;;;;;;5036395;28;20044;-72
2022/05/03 09:54:22;;;;;;;5.63;4.93;;;36.30;60.70;;;;;;5047030;28;20510;-72
2022/05/03 09:57:29;;;;;;;5.30;4.40;;;38.40;61.00;;;;;;5041104;28;20053;-71
2022/05/03 10:00:34;;;;;;;6.88;4.63;;;40.40;58.40;;;;;;5047749;28;20044;-72
2022/05/03 10:03:39;;;;;;;5.57;3.63;;;42.00;57.60;;;;;;5047310;28;20052;-72
2022/05/03 10:06:43;;;;;;;4.97;3.60;;;42.20;54.90;;;;;;5047903;28;20051;-72
2022/05/03 10:09:49;;;;;;;6.55;4.03;;;41.90;54.30;;;;;;5044634;28;20040;-72
2022/05/03 10:13:00;;;;;;;4.22;3.60;;;39.60;53.90;;;;;;5042175;28;20052;-70
2022/05/03 10:22:55;;;;;;;7.13;4.03;;;36.30;57.70;;;;;;5046864;28;20081;-71
2022/05/03 10:26:09;;;;;;;6.68;3.78;;;38.30;56.30;;;;;;5043160;28;20490;-71
2022/05/03 10:29:14;;;;;;;5.97;3.80;;;39.90;56.40;;;;;;5041672;28;20491;-71
2022/05/03 10:32:18;;;;;;;7.28;3.78;;;40.10;55.10;;;;;;5028409;28;20052;-72
2022/05/03 10:35:36;;;;;;;7.57;4.18;;;38.20;56.50;;;;;;5049258;28;20044;-72
2022/05/03 10:38:46;;;;;;;4.63;3.40;;;36.00;57.60;;;;;;5045625;28;20044;-72
2022/05/03 10:42:02;;;;;;;5.53;3.97;;;37.20;56.20;;;;;;5045097;28;20036;-74
2022/05/03 10:45:09;;;;;;;7.38;4.00;;;39.00;55.20;;;;;;5050604;28;20044;-72
2022/05/03 10:48:28;;;;;;;8.73;4.15;;;40.00;53.30;;;;;;5040190;28;20070;-70
2022/05/03 10:51:32;;;;;;;4.68;3.83;;;33.20;55.30;;;;;;5027979;28;20468;-71
2022/05/03 10:55:16;;;;;;;4.43;4.00;;;35.20;57.40;;;;;;5048108;28;20434;-72
2022/05/03 10:58:28;;;;;;;12.07;4.50;;;33.50;59.20;;;;;;5046157;28;20056;-74
2022/05/03 11:01:56;;;;;;;7.25;3.90;;;32.40;60.90;;;;;;5042699;28;20036;-76
2022/05/03 11:05:15;;;;;;;4.30;3.90;;;33.70;58.60;;;;;;5039544;28;20063;-75
2022/05/03 11:08:21;;;;;;;8.93;4.63;;;36.10;56.60;;;;;;5042374;28;20056;-74
2022/05/03 11:11:49;;;;;;;5.55;4.00;;;35.30;57.40;;;;;;5044364;28;20052;-73
2022/05/03 11:15:04;;;;;;;6.30;4.40;;;33.60;57.80;;;;;;5041877;28;20051;-71
2022/05/03 11:18:09;;;;;;;8.80;4.60;;;30.40;60.00;;;;;;5041330;28;20048;-74
2022/05/03 11:21:17;;;;;;;8.73;4.40;;;29.90;62.80;;;;;;5049120;28;20056;-74
2022/05/03 11:24:26;;;;;;;5.88;3.92;;;29.40;61.50;;;;;;5043819;28;20047;-71
2022/05/03 11:27:31;;;;;;;8.77;4.78;;;29.30;62.40;;;;;;5049389;28;20072;-73
2022/05/03 11:30:35;;;;;;;8.48;4.53;;;29.40;62.00;;;;;;5044726;28;20052;-73
2022/05/03 11:33:58;;;;;;;7.15;4.88;;;30.90;61.50;;;;;;5048206;28;20055;-74
2022/05/03 11:37:04;;;;;;;4.68;4.28;;;33.00;61.40;;;;;;5047416;28;20043;-73
2022/05/03 11:40:10;;;;;;;6.75;4.05;;;33.80;58.20;;;;;;5047629;28;20044;-74
2022/05/03 11:43:17;;;;;;;6.35;4.63;;;33.60;58.90;;;;;;5053735;28;20056;-74
2022/05/03 11:46:24;;;;;;;5.00;4.07;;;32.50;59.90;;;;;;5053770;28;20502;-73
2022/05/03 11:49:29;;;;;;;7.20;4.18;;;31.70;61.30;;;;;;5055049;28;20056;-74
2022/05/03 11:55:59;;;;;;;5.63;4.18;;;29.90;63.50;;;;;;5052467;28;20500;-73
2022/05/03 11:59:05;;;;;;;7.57;4.60;;;29.30;64.20;;;;;;5048455;28;20044;-73
2022/05/03 12:02:20;;;;;;;5.35;3.80;;;29.10;64.40;;;;;;5050151;28;20384;-73
2022/05/03 12:05:25;;;;;;;6.30;4.10;;;29.00;62.70;;;;;;5050510;28;20037;-73
2022/05/03 12:08:33;;;;;;;7.15;4.35;;;29.00;64.40;;;;;;5051287;28;20951;-74
2022/05/03 12:12:42;;;;;;;9.68;4.53;;;28.90;64.30;;;;;;5053118;28;20036;-72
2022/05/03 12:15:28;;;;;;;8.50;4.65;;;29.60;62.60;;;;;;5048454;28;20379;-73
2022/05/03 12:18:43;;;;;;;4.88;4.47;;;29.80;61.30;;;;;;5036515;28;20052;-72
2022/05/03 12:21:47;;;;;;;6.30;4.93;;;29.40;62.60;;;;;;5047771;28;20513;-74
2022/05/03 12:24:51;;;;;;;7.45;4.95;;;29.40;64.30;;;;;;5050056;28;20040;-73
2022/05/03 12:28:02;;;;;;;7.00;4.93;;;28.40;64.30;;;;;;5048573;28;20059;-72
2022/05/03 12:31:09;;;;;;;8.05;5.18;;;28.60;65.20;;;;;;5051561;28;20036;-72
2022/05/03 12:34:24;;;;;;;8.77;4.70;;;29.40;65.10;;;;;;5052116;28;20040;-73
2022/05/03 12:37:28;;;;;;;5.35;4.53;;;29.20;65.10;;;;;;5048572;28;20044;-72
2022/05/03 12:40:33;;;;;;;4.63;3.95;;;28.90;65.00;;;;;;5043917;28;20056;-74
2022/05/03 12:43:39;;;;;;;7.85;4.30;;;28.00;63.90;;;;;;5048685;28;20048;-74
2022/05/03 12:46:43;;;;;;;6.63;4.57;;;27.20;65.40;;;;;;5043643;28;20040;-73
2022/05/03 12:49:47;;;;;;;7.93;4.20;;;27.00;65.10;;;;;;5030163;28;20048;-74
2022/05/03 12:52:51;;;;;;;6.57;5.30;;;26.90;68.00;;;;;;5045096;28;20048;-73
2022/05/03 12:55:57;;;;;;;6.70;4.93;;;26.50;67.10;;;;;;5045572;28;20483;-71
2022/05/03 12:59:01;;;;;;;6.93;4.80;;;26.30;68.00;;;;;;5047627;28;20036;-75
2022/05/03 13:02:07;;;;;;;5.47;4.32;;;26.50;67.70;;;;;;5046055;28;20492;-74
2022/05/03 13:05:11;;;;;;;6.68;4.40;;;26.90;66.70;;;;;;5042961;28;20391;-75
2022/05/03 13:08:16;;;;;;;5.05;4.20;;;27.40;66.30;;;;;;5047768;28;20040;-73
2022/05/03 13:11:20;;;;;;;5.70;4.80;;;27.80;65.60;;;;;;5039971;28;20052;-75
2022/05/03 13:14:26;;;;;;;9.27;4.43;;;28.10;65.20;;;;;;5042334;28;20044;-74
2022/05/03 13:17:30;;;;;;;6.85;3.88;;;28.30;66.50;;;;;;5027919;28;20044;-75
2022/05/03 13:20:38;;;;;;;8.23;4.57;;;28.60;65.20;;;;;;5046500;28;20039;-75
2022/05/03 13:23:43;;;;;;;6.88;4.05;;;28.80;64.90;;;;;;5045770;28;20776;-75
2022/05/03 13:26:47;;;;;;;13.10;4.72;;;29.10;64.00;;;;;;5045595;28;20039;-74
2022/05/03 13:29:52;;;;;;;8.88;4.20;;;29.10;65.30;;;;;;5046021;28;20056;-73
2022/05/03 13:33:00;;;;;;;7.18;4.63;;;29.00;64.20;;;;;;5030880;28;20067;-73
2022/05/03 13:42:50;;;;;;;6.90;4.40;;;28.70;66.20;;;;;;5040492;28;20053;-75
2022/05/03 13:45:55;;;;;;;7.68;4.38;;;29.10;65.80;;;;;;5049250;28;20388;-73
2022/05/03 13:48:59;;;;;;;5.93;4.50;;;29.40;65.50;;;;;;5052366;28;20052;-73
2022/05/03 13:52:06;;;;;;;6.38;4.15;;;29.30;64.60;;;;;;5051231;28;20044;-73
2022/05/03 13:55:10;;;;;;;6.82;4.22;;;29.30;64.00;;;;;;5039955;28;20050;-71
2022/05/03 13:58:15;;;;;;;5.88;4.03;;;29.30;65.10;;;;;;5050826;28;20387;-71
2022/05/03 14:01:44;;;;;;;5.60;4.50;;;28.40;65.60;;;;;;5044040;28;20384;-72
2022/05/03 14:04:48;;;;;;;5.13;4.25;;;27.70;65.60;;;;;;5044493;28;20048;-76
2022/05/03 14:07:52;;;;;;;10.68;4.40;;;27.50;67.30;;;;;;5046371;28;20043;-74
2022/05/03 14:10:56;;;;;;;10.00;4.40;;;27.40;66.60;;;;;;5045521;28;20044;-73
2022/05/03 14:14:01;;;;;;;7.47;4.32;;;27.20;65.60;;;;;;5049258;28;20044;-73
2022/05/03 14:17:05;;;;;;;6.97;4.78;;;25.00;67.40;;;;;;5044915;28;20048;-73
2022/05/03 14:20:10;;;;;;;6.03;4.40;;;25.80;67.40;;;;;;5038846;28;20179;-70
2022/05/03 14:23:15;;;;;;;8.73;4.20;;;26.20;68.00;;;;;;5032456;28;20048;-70
2022/05/03 14:26:19;;;;;;;5.30;4.47;;;26.50;68.10;;;;;;5038083;28;20116;-70
2022/05/03 14:29:23;;;;;;;9.07;4.45;;;26.50;68.50;;;;;;5032339;28;20056;-70
2022/05/03 14:32:27;;;;;;;9.45;4.57;;;25.40;67.20;;;;;;5039851;28;20411;-72
2022/05/03 14:35:31;;;;;;;7.15;3.95;;;25.50;70.60;;;;;;5025196;28;20048;-73
2022/05/03 14:38:35;;;;;;;6.80;4.18;;;26.30;69.10;;;;;;5043554;28;20040;-71
2022/05/03 14:41:39;;;;;;;10.68;4.28;;;26.80;69.00;;;;;;5035417;28;20044;-73
2022/05/03 14:44:43;;;;;;;6.15;3.83;;;26.90;67.70;;;;;;5046114;28;20044;-72
2022/05/03 14:47:47;;;;;;;6.72;4.28;;;27.20;68.20;;;;;;5043258;28;20052;-72
2022/05/03 14:50:51;;;;;;;7.63;4.30;;;27.00;67.60;;;;;;5046595;28;20055;-72
2022/05/03 14:53:55;;;;;;;5.68;3.92;;;27.10;67.60;;;;;;5042732;28;20032;-72
2022/05/03 15:03:44;;;;;;;5.55;4.40;;;27.50;67.80;;;;;;5048214;28;20039;-72
2022/05/03 15:06:49;;;;;;;4.85;3.90;;;27.40;69.00;;;;;;5048361;28;20056;-71
2022/05/03 15:09:52;;;;;;;6.93;4.70;;;27.10;69.50;;;;;;5041128;28;20506;-72
2022/05/03 15:13:01;;;;;;;6.03;4.05;;;26.70;69.90;;;;;;5053025;28;20051;-72
2022/05/03 15:16:07;;;;;;;5.95;3.70;;;26.30;70.90;;;;;;5054292;28;20048;-72
2022/05/03 15:19:11;;;;;;;6.13;4.43;;;25.80;71.20;;;;;;5053675;28;20055;-71
2022/05/03 15:22:15;;;;;;;8.20;4.45;;;25.40;71.60;;;;;;5033997;28;20052;-72
2022/05/03 15:25:19;;;;;;;8.38;5.20;;;25.00;72.00;;;;;;5033935;28;20053;-71
2022/05/03 15:28:23;;;;;;;5.35;4.00;;;24.50;73.50;;;;;;5033550;28;20044;-71
2022/05/03 15:31:30;;;;;;;6.10;4.22;;;23.90;74.10;;;;;;5051196;28;20395;-71
2022/05/03 15:34:35;;;;;;;9.75;5.40;;;23.40;75.90;;;;;;5052541;28;20043;-71
2022/05/03 15:37:40;;;;;;;8.90;5.13;;;23.20;75.60;;;;;;5052855;28;20061;-71
2022/05/03 15:40:46;;;;;;;11.52;5.60;;;23.20;77.30;;;;;;5053389;28;20048;-71
2022/05/03 15:43:51;;;;;;;10.25;5.80;;;23.10;83.80;;;;;;5053235;28;20128;-71
2022/05/03 15:46:55;;;;;;;10.93;5.75;;;22.80;81.20;;;;;;5052808;28;20051;-71
2022/05/03 15:50:00;;;;;;;13.77;6.40;;;22.30;85.90;;;;;;5053381;28;20062;-71
2022/05/03 15:53:04;;;;;;;17.17;7.75;;;21.60;88.20;;;;;;5053224;28;20124;-70
2022/05/03 15:56:09;;;;;;;12.30;7.85;;;20.90;93.20;;;;;;5052761;28;20039;-69
2022/05/03 15:59:12;;;;;;;13.20;7.43;;;19.80;95.90;;;;;;5052596;28;20048;-69
2022/05/03 16:02:18;;;;;;;9.93;6.80;;;19.20;95.50;;;;;;5053560;28;20049;-69
2022/05/03 16:05:22;;;;;;;7.78;6.45;;;18.50;98.30;;;;;;5053749;28;20052;-69
2022/05/03 16:08:26;;;;;;;14.98;7.28;;;17.60;99.90;;;;;;5053000;28;20517;-70
2022/05/03 16:11:31;;;;;;;12.50;7.63;;;16.90;99.90;;;;;;5052976;28;20063;-70
2022/05/03 16:14:35;;;;;;;10.63;8.07;;;16.50;99.90;;;;;;5052522;28;20048;-71
2022/05/03 16:17:39;;;;;;;14.93;9.10;;;16.10;99.90;;;;;;5051897;28;20082;-70
2022/05/03 16:20:44;;;;;;;14.20;9.38;;;15.80;99.90;;;;;;5052382;28;20664;-70
2022/05/03 16:23:47;;;;;;;14.35;9.35;;;15.60;99.90;;;;;;5053057;28;20044;-70
2022/05/03 16:26:51;;;;;;;14.63;9.35;;;15.50;99.90;;;;;;5051433;28;20055;-70
2022/05/03 16:29:55;;;;;;;11.60;8.10;;;15.50;99.90;;;;;;5040192;28;20040;-70
2022/05/03 16:32:59;;;;;;;12.30;8.63;;;15.50;99.90;;;;;;5052446;28;20395;-70
2022/05/03 16:42:49;;;;;;;12.18;7.68;;;15.60;99.90;;;;;;5052274;28;20040;-70
2022/05/03 16:45:52;;;;;;;11.93;8.43;;;15.80;99.90;;;;;;5052210;28;20059;-71
2022/05/03 16:48:57;;;;;;;10.10;7.47;;;16.00;99.90;;;;;;5052444;28;20048;-71
2022/05/03 16:52:01;;;;;;;11.13;7.97;;;16.10;99.90;;;;;;5052010;28;20039;-70
2022/05/03 16:55:09;;;;;;;10.85;6.70;;;16.30;99.90;;;;;;5051719;28;20400;-69
2022/05/03 16:58:15;;;;;;;7.68;6.38;;;16.40;99.90;;;;;;5051685;28;20388;-70